This is the latest recevied weather packets stored in our database for station/object KY4GW. If no packets are shown the sender has not sent any weather packets the latest 1 day(s).
| Time | Temp. | Humidity | Pressure | Rain* | Wind** | Luminosity | Snow |
|---|---|---|---|---|---|---|---|
| 1778087162 | 13.89° C | 70% | 1015.8 hPa | 0 mm | - | 804 W/m² | - |
| 1778085951 | 13.89° C | 70% | 1015.8 hPa | 0 mm | - | 364 W/m² | - |
| 1778081818 | 12.78° C | 73% | 1015.1 hPa | 0 mm | - | 656 W/m² | - |
| 1778081212 | 12.22° C | 76% | 1015.1 hPa | 0 mm | - | 704 W/m² | - |
| 1778080304 | 11.67° C | 74% | 1015.5 hPa | 0 mm | - | 729 W/m² | - |
| 1778079092 | 10.56° C | 81% | 1015.1 hPa | 0 mm | - | 427 W/m² | - |
| 1778078790 | 11.67° C | 80% | 1015.1 hPa | 0 mm | - | 235 W/m² | - |
| 1778078486 | 11.67° C | 77% | 1015.1 hPa | 0 mm | - | 412 W/m² | - |
| 1778078184 | 11.11° C | 80% | 1015.1 hPa | 0 mm | - | 512 W/m² | - |
| 1778076975 | 10° C | 84% | 1014.8 hPa | 0 mm | - | 251 W/m² | - |
| 1778076673 | 10° C | 85% | 1014.4 hPa | 0 mm | - | 193 W/m² | - |
| 1778075157 | 9.44° C | 87% | 1014.8 hPa | 0 mm | - | 171 W/m² | - |
| 1778074853 | 9.44° C | 87% | 1014.1 hPa | 0 mm | - | 164 W/m² | - |
| 1778073035 | 8.89° C | 90% | 1013.8 hPa | 0 mm | - | 86 W/m² | - |
| 1778072732 | 8.89° C | 89% | 1013.8 hPa | 0 mm | - | 64 W/m² | - |
| 1778071825 | 8.89° C | 89% | 1014.1 hPa | 0 mm | - | 75 W/m² | - |
| 1778071523 | 8.89° C | 90% | 1013.8 hPa | 0 mm | - | 68 W/m² | - |
| 1778070918 | 8.89° C | 91% | 1013.8 hPa | 0 mm | - | 38 W/m² | - |
| 1778070616 | 8.89° C | 91% | 1013.1 hPa | 0 mm | - | 65 W/m² | - |
| 1778069708 | 8.89° C | 93% | 1013.1 hPa | 0 mm | - | 67 W/m² | - |
| 1778069404 | 8.89° C | 93% | 1013.4 hPa | 0 mm | - | 59 W/m² | - |
| 1778068799 | 8.89° C | 94% | 1013.1 hPa | 0 mm | - | 51 W/m² | - |
| 1778068195 | 8.89° C | 94% | 1013.1 hPa | 0 mm | - | 42 W/m² | - |
| 1778067892 | 8.89° C | 94% | 1012.4 hPa | 0 mm | - | 29 W/m² | - |
| 1778067288 | 8.89° C | 94% | 1012.4 hPa | 0 mm | - | 9 W/m² | - |
* Rain latest hour (hover to see other rain measurements)
** Current wind speed in m/s (hover to see current wind gust speed)